sensor_id;sensor_type;location;lat;lon;timestamp;pressure;altitude;pressure_sealevel;temperature;humidity
18014;BME280;9132;47.946;10.394;2023-11-19T00:01:31;94165.69;;;7.14;100.00
18014;BME280;9132;47.946;10.394;2023-11-19T00:03:58;94154.88;;;7.17;100.00
18014;BME280;9132;47.946;10.394;2023-11-19T00:06:25;94139.28;;;7.15;100.00
18014;BME280;9132;47.946;10.394;2023-11-19T00:08:53;94140.94;;;7.16;100.00
18014;BME280;9132;47.946;10.394;2023-11-19T00:11:18;94135.69;;;7.16;100.00
18014;BME280;9132;47.946;10.394;2023-11-19T00:13:45;94139.78;;;7.19;100.00
18014;BME280;9132;47.946;10.394;2023-11-19T00:16:11;94127.47;;;7.19;100.00
18014;BME280;9132;47.946;10.394;2023-11-19T00:18:38;94138.31;;;7.16;100.00
18014;BME280;9132;47.946;10.394;2023-11-19T00:21:05;94116.84;;;7.13;100.00
18014;BME280;9132;47.946;10.394;2023-11-19T00:23:35;94108.97;;;7.13;100.00
18014;BME280;9132;47.946;10.394;2023-11-19T00:26:02;94114.03;;;7.14;100.00
18014;BME280;9132;47.946;10.394;2023-11-19T00:28:31;94104.53;;;7.13;100.00
18014;BME280;9132;47.946;10.394;2023-11-19T00:30:58;94110.59;;;7.14;100.00
18014;BME280;9132;47.946;10.394;2023-11-19T00:33:24;94101.13;;;7.13;100.00
18014;BME280;9132;47.946;10.394;2023-11-19T00:35:51;94081.75;;;7.14;100.00
18014;BME280;9132;47.946;10.394;2023-11-19T00:38:17;94081.09;;;7.12;100.00
18014;BME280;9132;47.946;10.394;2023-11-19T00:40:45;94084.53;;;7.12;100.00
18014;BME280;9132;47.946;10.394;2023-11-19T00:43:12;94096.69;;;7.13;100.00
18014;BME280;9132;47.946;10.394;2023-11-19T00:45:39;94085.03;;;7.16;100.00
18014;BME280;9132;47.946;10.394;2023-11-19T00:48:05;94085.03;;;7.16;100.00
18014;BME280;9132;47.946;10.394;2023-11-19T00:50:32;94087.66;;;7.16;100.00
18014;BME280;9132;47.946;10.394;2023-11-19T00:52:58;94079.94;;;7.14;100.00
18014;BME280;9132;47.946;10.394;2023-11-19T00:55:25;94082.41;;;7.16;100.00
18014;BME280;9132;47.946;10.394;2023-11-19T00:57:53;94082.06;;;7.19;100.00
18014;BME280;9132;47.946;10.394;2023-11-19T01:00:21;94088.94;;;7.20;100.00
18014;BME280;9132;47.946;10.394;2023-11-19T01:02:51;94078.25;;;7.22;100.00
18014;BME280;9132;47.946;10.394;2023-11-19T01:05:18;94078.06;;;7.23;100.00
18014;BME280;9132;47.946;10.394;2023-11-19T01:07:47;94092.66;;;7.26;100.00
18014;BME280;9132;47.946;10.394;2023-11-19T01:10:13;94113.81;;;7.24;100.00
18014;BME280;9132;47.946;10.394;2023-11-19T01:12:41;94103.66;;;7.21;100.00
18014;BME280;9132;47.946;10.394;2023-11-19T01:15:09;94094.16;;;7.20;100.00
18014;BME280;9132;47.946;10.394;2023-11-19T01:17:36;94103.03;;;7.19;100.00
18014;BME280;9132;47.946;10.394;2023-11-19T01:20:04;94107.97;;;7.14;100.00
18014;BME280;9132;47.946;10.394;2023-11-19T01:22:31;94111.41;;;7.14;100.00
18014;BME280;9132;47.946;10.394;2023-11-19T01:24:58;94100.91;;;7.14;100.00
18014;BME280;9132;47.946;10.394;2023-11-19T01:27:25;94102.91;;;7.12;100.00
18014;BME280;9132;47.946;10.394;2023-11-19T01:29:52;94116.00;;;7.12;100.00
18014;BME280;9132;47.946;10.394;2023-11-19T01:32:20;94103.91;;;7.11;100.00
18014;BME280;9132;47.946;10.394;2023-11-19T01:34:46;94093.59;;;7.10;100.00
18014;BME280;9132;47.946;10.394;2023-11-19T01:37:13;94100.81;;;7.08;100.00
18014;BME280;9132;47.946;10.394;2023-11-19T01:39:43;94086.06;;;7.07;100.00
18014;BME280;9132;47.946;10.394;2023-11-19T01:42:10;94084.41;;;7.06;100.00
18014;BME280;9132;47.946;10.394;2023-11-19T01:44:37;94090.50;;;7.06;100.00
18014;BME280;9132;47.946;10.394;2023-11-19T01:47:04;94091.94;;;7.09;100.00
18014;BME280;9132;47.946;10.394;2023-11-19T01:49:32;94076.03;;;7.10;100.00
18014;BME280;9132;47.946;10.394;2023-11-19T01:51:59;94071.91;;;7.16;100.00
18014;BME280;9132;47.946;10.394;2023-11-19T01:54:26;94060.88;;;7.20;100.00
18014;BME280;9132;47.946;10.394;2023-11-19T01:56:56;94057.56;;;7.27;100.00
18014;BME280;9132;47.946;10.394;2023-11-19T01:59:23;94050.13;;;7.30;100.00
18014;BME280;9132;47.946;10.394;2023-11-19T02:01:53;94047.97;;;7.34;100.00
18014;BME280;9132;47.946;10.394;2023-11-19T02:04:20;94033.03;;;7.34;100.00
18014;BME280;9132;47.946;10.394;2023-11-19T02:06:50;94020.22;;;7.39;100.00
18014;BME280;9132;47.946;10.394;2023-11-19T02:09:18;94033.78;;;7.43;100.00
18014;BME280;9132;47.946;10.394;2023-11-19T02:11:46;94024.75;;;7.46;100.00
18014;BME280;9132;47.946;10.394;2023-11-19T02:14:14;94021.06;;;7.55;100.00
18014;BME280;9132;47.946;10.394;2023-11-19T02:16:41;94020.88;;;7.56;100.00
18014;BME280;9132;47.946;10.394;2023-11-19T02:19:07;94008.84;;;7.62;100.00
18014;BME280;9132;47.946;10.394;2023-11-19T02:21:35;94011.75;;;7.67;100.00
18014;BME280;9132;47.946;10.394;2023-11-19T02:24:07;94007.59;;;7.73;100.00
18014;BME280;9132;47.946;10.394;2023-11-19T02:26:39;94018.56;;;7.76;100.00
18014;BME280;9132;47.946;10.394;2023-11-19T02:29:07;93995.19;;;7.81;100.00
18014;BME280;9132;47.946;10.394;2023-11-19T02:31:34;93993.41;;;7.82;100.00
18014;BME280;9132;47.946;10.394;2023-11-19T02:34:01;93996.03;;;7.82;100.00
18014;BME280;9132;47.946;10.394;2023-11-19T02:36:28;93990.22;;;7.86;100.00
18014;BME280;9132;47.946;10.394;2023-11-19T02:38:55;93993.13;;;7.92;100.00
18014;BME280;9132;47.946;10.394;2023-11-19T02:41:21;93999.34;;;7.90;100.00
18014;BME280;9132;47.946;10.394;2023-11-19T02:43:48;93985.59;;;7.88;100.00
18014;BME280;9132;47.946;10.394;2023-11-19T02:46:16;93985.50;;;7.97;100.00
18014;BME280;9132;47.946;10.394;2023-11-19T02:48:43;93960.88;;;7.98;100.00
18014;BME280;9132;47.946;10.394;2023-11-19T02:51:09;93975.81;;;7.97;100.00
18014;BME280;9132;47.946;10.394;2023-11-19T02:53:36;93968.19;;;8.02;100.00
18014;BME280;9132;47.946;10.394;2023-11-19T02:56:05;93958.59;;;8.09;100.00
18014;BME280;9132;47.946;10.394;2023-11-19T02:58:42;93950.97;;;8.15;100.00
18014;BME280;9132;47.946;10.394;2023-11-19T03:01:10;93973.09;;;8.20;100.00
18014;BME280;9132;47.946;10.394;2023-11-19T03:03:45;93968.63;;;8.21;100.00
18014;BME280;9132;47.946;10.394;2023-11-19T03:06:14;93969.88;;;8.25;100.00
18014;BME280;9132;47.946;10.394;2023-11-19T03:08:41;93960.00;;;8.27;100.00
18014;BME280;9132;47.946;10.394;2023-11-19T03:11:08;93976.41;;;8.29;100.00
18014;BME280;9132;47.946;10.394;2023-11-19T03:13:34;93956.22;;;8.29;100.00
18014;BME280;9132;47.946;10.394;2023-11-19T03:16:01;93958.00;;;8.29;100.00
18014;BME280;9132;47.946;10.394;2023-11-19T03:18:27;93963.47;;;8.27;100.00
18014;BME280;9132;47.946;10.394;2023-11-19T03:20:55;93975.78;;;8.27;100.00
18014;BME280;9132;47.946;10.394;2023-11-19T03:23:22;93990.53;;;8.28;100.00
18014;BME280;9132;47.946;10.394;2023-11-19T03:25:49;93962.44;;;8.28;100.00
18014;BME280;9132;47.946;10.394;2023-11-19T03:28:16;94005.88;;;8.24;100.00
18014;BME280;9132;47.946;10.394;2023-11-19T03:30:42;93955.94;;;8.24;100.00
18014;BME280;9132;47.946;10.394;2023-11-19T03:33:09;93974.97;;;8.26;100.00
18014;BME280;9132;47.946;10.394;2023-11-19T03:35:35;93983.31;;;8.30;100.00
18014;BME280;9132;47.946;10.394;2023-11-19T03:38:03;93958.84;;;8.29;100.00
18014;BME280;9132;47.946;10.394;2023-11-19T03:40:30;93960.63;;;8.29;100.00
18014;BME280;9132;47.946;10.394;2023-11-19T03:42:56;93960.47;;;8.30;100.00
18014;BME280;9132;47.946;10.394;2023-11-19T03:45:23;93956.66;;;8.33;100.00
18014;BME280;9132;47.946;10.394;2023-11-19T03:47:50;93976.66;;;8.34;100.00
18014;BME280;9132;47.946;10.394;2023-11-19T03:52:45;93969.78;;;8.33;100.00
18014;BME280;9132;47.946;10.394;2023-11-19T03:55:13;93987.19;;;8.34;100.00
18014;BME280;9132;47.946;10.394;2023-11-19T03:57:40;93985.38;;;8.34;100.00
18014;BME280;9132;47.946;10.394;2023-11-19T04:00:07;93978.94;;;8.37;100.00
18014;BME280;9132;47.946;10.394;2023-11-19T04:02:35;94012.81;;;8.32;100.00
18014;BME280;9132;47.946;10.394;2023-11-19T04:05:02;93980.41;;;8.40;100.00
18014;BME280;9132;47.946;10.394;2023-11-19T04:07:29;94013.31;;;8.35;100.00
18014;BME280;9132;47.946;10.394;2023-11-19T04:09:56;93990.00;;;8.32;100.00
18014;BME280;9132;47.946;10.394;2023-11-19T04:12:24;93997.41;;;8.29;100.00
18014;BME280;9132;47.946;10.394;2023-11-19T04:14:51;93993.97;;;8.28;100.00
18014;BME280;9132;47.946;10.394;2023-11-19T04:17:18;94002.22;;;8.25;100.00
18014;BME280;9132;47.946;10.394;2023-11-19T04:19:44;93998.34;;;8.21;100.00
18014;BME280;9132;47.946;10.394;2023-11-19T04:22:11;94007.25;;;8.20;100.00
18014;BME280;9132;47.946;10.394;2023-11-19T04:24:37;94011.22;;;8.16;100.00
18014;BME280;9132;47.946;10.394;2023-11-19T04:27:06;94022.72;;;8.15;100.00
18014;BME280;9132;47.946;10.394;2023-11-19T04:29:34;94006.31;;;8.13;100.00
18014;BME280;9132;47.946;10.394;2023-11-19T04:32:00;94011.78;;;8.11;100.00
18014;BME280;9132;47.946;10.394;2023-11-19T04:34:27;94019.66;;;8.11;100.00
18014;BME280;9132;47.946;10.394;2023-11-19T04:36:54;94022.44;;;8.10;100.00
18014;BME280;9132;47.946;10.394;2023-11-19T04:39:20;94045.47;;;8.08;100.00
18014;BME280;9132;47.946;10.394;2023-11-19T04:41:48;94047.47;;;8.06;100.00
18014;BME280;9132;47.946;10.394;2023-11-19T04:44:15;94024.63;;;8.06;100.00
18014;BME280;9132;47.946;10.394;2023-11-19T04:46:44;94020.03;;;8.08;100.00
18014;BME280;9132;47.946;10.394;2023-11-19T04:49:10;94013.94;;;8.08;100.00
18014;BME280;9132;47.946;10.394;2023-11-19T04:51:40;94010.50;;;8.07;100.00
18014;BME280;9132;47.946;10.394;2023-11-19T04:54:08;94024.47;;;8.08;100.00
18014;BME280;9132;47.946;10.394;2023-11-19T04:56:34;94031.53;;;8.07;100.00
18014;BME280;9132;47.946;10.394;2023-11-19T04:59:02;94027.91;;;8.08;100.00
18014;BME280;9132;47.946;10.394;2023-11-19T05:01:28;94031.34;;;8.09;100.00
18014;BME280;9132;47.946;10.394;2023-11-19T05:03:56;94065.50;;;8.09;100.00
18014;BME280;9132;47.946;10.394;2023-11-19T05:06:26;94030.06;;;8.05;100.00
18014;BME280;9132;47.946;10.394;2023-11-19T05:08:52;94031.06;;;8.04;100.00
18014;BME280;9132;47.946;10.394;2023-11-19T05:11:19;94043.22;;;8.05;100.00
18014;BME280;9132;47.946;10.394;2023-11-19T05:13:45;94037.59;;;8.08;100.00
18014;BME280;9132;47.946;10.394;2023-11-19T05:16:12;94028.91;;;8.07;100.00
18014;BME280;9132;47.946;10.394;2023-11-19T05:18:40;94033.97;;;8.09;100.00
18014;BME280;9132;47.946;10.394;2023-11-19T05:21:08;94042.13;;;8.14;100.00
18014;BME280;9132;47.946;10.394;2023-11-19T05:23:35;94041.94;;;8.16;100.00
18014;BME280;9132;47.946;10.394;2023-11-19T05:26:01;94038.94;;;8.19;100.00
18014;BME280;9132;47.946;10.394;2023-11-19T05:28:28;94033.31;;;8.22;100.00
18014;BME280;9132;47.946;10.394;2023-11-19T05:30:55;94030.97;;;8.27;100.00
18014;BME280;9132;47.946;10.394;2023-11-19T05:33:21;94050.19;;;8.27;100.00
18014;BME280;9132;47.946;10.394;2023-11-19T05:35:48;94033.41;;;8.28;100.00
18014;BME280;9132;47.946;10.394;2023-11-19T05:38:16;94028.78;;;8.30;100.00
18014;BME280;9132;47.946;10.394;2023-11-19T05:40:43;94029.25;;;8.34;100.00
18014;BME280;9132;47.946;10.394;2023-11-19T05:43:10;94016.75;;;8.36;100.00
18014;BME280;9132;47.946;10.394;2023-11-19T05:45:36;93995.38;;;8.39;100.00
18014;BME280;9132;47.946;10.394;2023-11-19T05:48:04;94024.28;;;8.39;100.00
18014;BME280;9132;47.946;10.394;2023-11-19T05:50:30;94034.81;;;8.39;100.00
18014;BME280;9132;47.946;10.394;2023-11-19T05:52:57;94038.84;;;8.42;100.00
18014;BME280;9132;47.946;10.394;2023-11-19T05:55:25;94069.22;;;8.44;100.00
18014;BME280;9132;47.946;10.394;2023-11-19T05:57:53;94060.00;;;8.48;100.00
18014;BME280;9132;47.946;10.394;2023-11-19T06:00:20;94036.50;;;8.47;100.00
18014;BME280;9132;47.946;10.394;2023-11-19T06:02:46;94019.56;;;8.49;100.00
18014;BME280;9132;47.946;10.394;2023-11-19T06:05:13;94072.94;;;8.50;100.00
18014;BME280;9132;47.946;10.394;2023-11-19T06:07:39;94035.13;;;8.51;100.00
18014;BME280;9132;47.946;10.394;2023-11-19T06:10:07;94052.56;;;8.52;100.00
18014;BME280;9132;47.946;10.394;2023-11-19T06:12:36;94068.13;;;8.53;100.00
18014;BME280;9132;47.946;10.394;2023-11-19T06:15:07;94050.81;;;8.59;100.00
18014;BME280;9132;47.946;10.394;2023-11-19T06:17:34;94046.19;;;8.61;100.00
18014;BME280;9132;47.946;10.394;2023-11-19T06:20:01;94041.56;;;8.63;100.00
18014;BME280;9132;47.946;10.394;2023-11-19T06:22:29;94056.16;;;8.66;100.00
18014;BME280;9132;47.946;10.394;2023-11-19T06:24:56;94055.16;;;8.67;100.00
18014;BME280;9132;47.946;10.394;2023-11-19T06:27:23;94053.16;;;8.69;100.00
18014;BME280;9132;47.946;10.394;2023-11-19T06:29:51;94051.34;;;8.69;100.00
18014;BME280;9132;47.946;10.394;2023-11-19T06:32:18;94044.25;;;8.70;100.00
18014;BME280;9132;47.946;10.394;2023-11-19T06:34:44;94051.16;;;8.71;100.00
18014;BME280;9132;47.946;10.394;2023-11-19T06:37:11;94047.53;;;8.72;100.00
18014;BME280;9132;47.946;10.394;2023-11-19T06:39:38;94057.03;;;8.73;100.00
18014;BME280;9132;47.946;10.394;2023-11-19T06:42:04;94065.41;;;8.76;100.00
18014;BME280;9132;47.946;10.394;2023-11-19T06:44:31;94061.75;;;8.77;100.00
18014;BME280;9132;47.946;10.394;2023-11-19T06:46:59;94073.28;;;8.76;100.00
18014;BME280;9132;47.946;10.394;2023-11-19T06:49:25;94056.31;;;8.79;100.00
18014;BME280;9132;47.946;10.394;2023-11-19T06:51:53;94070.25;;;8.79;100.00
18014;BME280;9132;47.946;10.394;2023-11-19T06:54:20;94083.41;;;8.79;100.00
18014;BME280;9132;47.946;10.394;2023-11-19T06:56:46;94065.63;;;8.81;100.00
18014;BME280;9132;47.946;10.394;2023-11-19T06:59:13;94072.72;;;8.81;100.00
18014;BME280;9132;47.946;10.394;2023-11-19T07:01:39;94079.59;;;8.82;100.00
18014;BME280;9132;47.946;10.394;2023-11-19T07:04:11;94084.06;;;8.81;100.00
18014;BME280;9132;47.946;10.394;2023-11-19T07:06:38;94094.41;;;8.83;100.00
18014;BME280;9132;47.946;10.394;2023-11-19T07:09:06;94094.22;;;8.85;100.00
18014;BME280;9132;47.946;10.394;2023-11-19T07:11:35;94092.38;;;8.85;100.00
18014;BME280;9132;47.946;10.394;2023-11-19T07:14:04;94080.88;;;8.86;100.00
18014;BME280;9132;47.946;10.394;2023-11-19T07:16:31;94085.94;;;8.88;100.00
18014;BME280;9132;47.946;10.394;2023-11-19T07:18:58;94084.31;;;8.87;100.00
18014;BME280;9132;47.946;10.394;2023-11-19T07:21:27;94069.78;;;8.91;100.00
18014;BME280;9132;47.946;10.394;2023-11-19T07:23:54;94085.41;;;8.92;100.00
18014;BME280;9132;47.946;10.394;2023-11-19T07:26:21;94095.75;;;8.94;100.00
18014;BME280;9132;47.946;10.394;2023-11-19T07:28:48;94097.78;;;8.98;100.00
18014;BME280;9132;47.946;10.394;2023-11-19T07:31:15;94095.81;;;9.00;100.00
18014;BME280;9132;47.946;10.394;2023-11-19T07:33:41;94079.84;;;9.02;100.00
18014;BME280;9132;47.946;10.394;2023-11-19T07:36:09;94104.94;;;9.04;100.00
18014;BME280;9132;47.946;10.394;2023-11-19T07:38:37;94096.09;;;9.05;100.00
18014;BME280;9132;47.946;10.394;2023-11-19T07:41:05;94086.38;;;9.06;100.00
18014;BME280;9132;47.946;10.394;2023-11-19T07:43:32;94112.31;;;9.09;100.00
18014;BME280;9132;47.946;10.394;2023-11-19T07:45:58;94107.50;;;9.13;100.00
18014;BME280;9132;47.946;10.394;2023-11-19T07:48:25;94103.03;;;9.13;100.00
18014;BME280;9132;47.946;10.394;2023-11-19T07:50:52;94131.16;;;9.13;100.00
18014;BME280;9132;47.946;10.394;2023-11-19T07:53:22;94099.41;;;9.14;100.00
18014;BME280;9132;47.946;10.394;2023-11-19T07:55:50;94104.47;;;9.16;100.00
18014;BME280;9132;47.946;10.394;2023-11-19T07:58:16;94101.47;;;9.19;100.00
18014;BME280;9132;47.946;10.394;2023-11-19T08:00:43;94111.38;;;9.17;100.00
18014;BME280;9132;47.946;10.394;2023-11-19T08:03:09;94112.66;;;9.21;100.00
18014;BME280;9132;47.946;10.394;2023-11-19T08:05:36;94114.06;;;9.23;100.00
18014;BME280;9132;47.946;10.394;2023-11-19T08:08:03;94113.91;;;9.25;100.00
18014;BME280;9132;47.946;10.394;2023-11-19T08:10:30;94111.06;;;9.26;100.00
18014;BME280;9132;47.946;10.394;2023-11-19T08:12:59;94115.97;;;9.29;100.00
18014;BME280;9132;47.946;10.394;2023-11-19T08:15:26;94122.06;;;9.30;100.00
18014;BME280;9132;47.946;10.394;2023-11-19T08:17:53;94120.25;;;9.31;100.00
18014;BME280;9132;47.946;10.394;2023-11-19T08:20:19;94133.03;;;9.34;100.00
18014;BME280;9132;47.946;10.394;2023-11-19T08:22:53;94152.88;;;9.36;100.00
18014;BME280;9132;47.946;10.394;2023-11-19T08:25:19;94142.34;;;9.36;100.00
18014;BME280;9132;47.946;10.394;2023-11-19T08:27:46;94141.38;;;9.37;100.00
18014;BME280;9132;47.946;10.394;2023-11-19T08:30:14;94150.88;;;9.38;100.00
18014;BME280;9132;47.946;10.394;2023-11-19T08:32:40;94141.16;;;9.39;100.00
18014;BME280;9132;47.946;10.394;2023-11-19T08:35:07;94140.19;;;9.40;100.00
18014;BME280;9132;47.946;10.394;2023-11-19T08:37:34;94133.91;;;9.41;100.00
18014;BME280;9132;47.946;10.394;2023-11-19T08:40:02;94131.28;;;9.41;100.00
18014;BME280;9132;47.946;10.394;2023-11-19T08:42:30;94123.19;;;9.42;100.00
18014;BME280;9132;47.946;10.394;2023-11-19T08:44:55;94123.56;;;9.39;100.00
18014;BME280;9132;47.946;10.394;2023-11-19T08:47:23;94149.72;;;9.41;100.00
18014;BME280;9132;47.946;10.394;2023-11-19T08:49:50;94115.47;;;9.41;100.00
18014;BME280;9132;47.946;10.394;2023-11-19T08:52:18;94129.28;;;9.43;100.00
18014;BME280;9132;47.946;10.394;2023-11-19T08:54:45;94131.72;;;9.44;100.00
18014;BME280;9132;47.946;10.394;2023-11-19T08:57:11;94127.91;;;9.47;100.00
18014;BME280;9132;47.946;10.394;2023-11-19T08:59:38;94128.53;;;9.49;100.00
18014;BME280;9132;47.946;10.394;2023-11-19T09:02:05;94120.44;;;9.50;100.00
18014;BME280;9132;47.946;10.394;2023-11-19T09:04:33;94127.97;;;9.54;100.00
18014;BME280;9132;47.946;10.394;2023-11-19T09:07:01;94129.19;;;9.58;100.00
18014;BME280;9132;47.946;10.394;2023-11-19T09:09:27;94115.47;;;9.62;100.00
18014;BME280;9132;47.946;10.394;2023-11-19T09:11:54;94109.63;;;9.67;100.00
18014;BME280;9132;47.946;10.394;2023-11-19T09:14:20;94127.91;;;9.68;100.00
18014;BME280;9132;47.946;10.394;2023-11-19T09:16:49;94127.53;;;9.71;100.00
18014;BME280;9132;47.946;10.394;2023-11-19T09:19:16;94139.47;;;9.74;100.00
18014;BME280;9132;47.946;10.394;2023-11-19T09:21:44;94139.09;;;9.77;100.00
18014;BME280;9132;47.946;10.394;2023-11-19T09:24:10;94138.72;;;9.80;100.00
18014;BME280;9132;47.946;10.394;2023-11-19T09:26:37;94128.66;;;9.84;100.00
18014;BME280;9132;47.946;10.394;2023-11-19T09:29:05;94125.44;;;9.88;100.00
18014;BME280;9132;47.946;10.394;2023-11-19T09:31:33;94133.38;;;9.95;100.00
18014;BME280;9132;47.946;10.394;2023-11-19T09:33:59;94128.38;;;10.00;100.00
18014;BME280;9132;47.946;10.394;2023-11-19T09:36:26;94125.16;;;10.05;100.00
18014;BME280;9132;47.946;10.394;2023-11-19T09:38:54;94121.53;;;10.06;100.00
18014;BME280;9132;47.946;10.394;2023-11-19T09:41:20;94132.06;;;10.06;100.00
18014;BME280;9132;47.946;10.394;2023-11-19T09:43:47;94116.44;;;10.04;100.00
18014;BME280;9132;47.946;10.394;2023-11-19T09:46:15;94120.69;;;10.05;100.00
18014;BME280;9132;47.946;10.394;2023-11-19T09:48:42;94128.00;;;10.03;100.00
18014;BME280;9132;47.946;10.394;2023-11-19T09:51:10;94111.81;;;10.06;100.00
18014;BME280;9132;47.946;10.394;2023-11-19T09:53:38;94113.41;;;10.07;100.00
18014;BME280;9132;47.946;10.394;2023-11-19T09:56:07;94122.78;;;10.10;100.00
18014;BME280;9132;47.946;10.394;2023-11-19T09:58:34;94116.91;;;10.14;100.00
18014;BME280;9132;47.946;10.394;2023-11-19T10:01:01;94115.34;;;10.20;100.00
18014;BME280;9132;47.946;10.394;2023-11-19T10:03:32;94101.59;;;10.25;100.00
18014;BME280;9132;47.946;10.394;2023-11-19T10:06:00;94134.13;;;10.32;100.00
18014;BME280;9132;47.946;10.394;2023-11-19T10:08:27;94118.50;;;10.37;100.00
18014;BME280;9132;47.946;10.394;2023-11-19T10:10:54;94102.94;;;10.42;100.00
18014;BME280;9132;47.946;10.394;2023-11-19T10:13:26;94107.00;;;10.44;100.00
18014;BME280;9132;47.946;10.394;2023-11-19T10:15:52;94117.94;;;10.41;100.00
18014;BME280;9132;47.946;10.394;2023-11-19T10:18:23;94120.38;;;10.43;100.00
18014;BME280;9132;47.946;10.394;2023-11-19T10:20:50;94103.56;;;10.44;100.00
18014;BME280;9132;47.946;10.394;2023-11-19T10:23:17;94114.94;;;10.44;100.00
18014;BME280;9132;47.946;10.394;2023-11-19T10:25:44;94105.00;;;10.47;100.00
18014;BME280;9132;47.946;10.394;2023-11-19T10:28:10;94099.13;;;10.51;100.00
18014;BME280;9132;47.946;10.394;2023-11-19T10:30:38;94099.38;;;10.56;100.00
18014;BME280;9132;47.946;10.394;2023-11-19T10:33:06;94093.09;;;10.57;100.00
18014;BME280;9132;47.946;10.394;2023-11-19T10:35:33;94101.63;;;10.59;100.00
18014;BME280;9132;47.946;10.394;2023-11-19T10:38:00;94091.47;;;10.56;100.00
18014;BME280;9132;47.946;10.394;2023-11-19T10:40:39;94087.97;;;10.56;100.00
18014;BME280;9132;47.946;10.394;2023-11-19T10:43:06;94096.09;;;10.54;100.00
18014;BME280;9132;47.946;10.394;2023-11-19T10:45:34;94081.69;;;10.50;100.00
18014;BME280;9132;47.946;10.394;2023-11-19T10:48:02;94083.50;;;10.50;100.00
18014;BME280;9132;47.946;10.394;2023-11-19T10:50:31;94082.28;;;10.52;100.00
18014;BME280;9132;47.946;10.394;2023-11-19T10:52:58;94074.63;;;10.57;100.00
18014;BME280;9132;47.946;10.394;2023-11-19T10:55:27;94078.50;;;10.68;100.00
18014;BME280;9132;47.946;10.394;2023-11-19T10:57:58;94069.81;;;10.74;100.00
18014;BME280;9132;47.946;10.394;2023-11-19T11:00:26;94074.69;;;10.77;100.00
18014;BME280;9132;47.946;10.394;2023-11-19T11:02:55;94069.03;;;10.80;100.00
18014;BME280;9132;47.946;10.394;2023-11-19T11:05:26;94063.56;;;10.82;100.00
18014;BME280;9132;47.946;10.394;2023-11-19T11:07:55;94060.94;;;10.82;100.00
18014;BME280;9132;47.946;10.394;2023-11-19T11:10:25;94073.91;;;10.83;100.00
18014;BME280;9132;47.946;10.394;2023-11-19T11:12:52;94061.09;;;10.80;100.00
18014;BME280;9132;47.946;10.394;2023-11-19T11:15:24;94080.78;;;10.78;100.00
18014;BME280;9132;47.946;10.394;2023-11-19T11:17:58;94063.16;;;10.78;100.00
18014;BME280;9132;47.946;10.394;2023-11-19T11:20:28;94047.72;;;10.75;100.00
18014;BME280;9132;47.946;10.394;2023-11-19T11:23:06;94044.22;;;10.75;100.00
18014;BME280;9132;47.946;10.394;2023-11-19T11:25:44;94045.25;;;10.74;100.00
18014;BME280;9132;47.946;10.394;2023-11-19T11:28:26;94036.31;;;10.75;100.00
18014;BME280;9132;47.946;10.394;2023-11-19T11:31:07;94035.31;;;10.76;100.00
18014;BME280;9132;47.946;10.394;2023-11-19T11:33:52;94041.81;;;10.80;100.00
18014;BME280;9132;47.946;10.394;2023-11-19T11:36:26;94048.53;;;10.82;100.00
18014;BME280;9132;47.946;10.394;2023-11-19T11:38:53;94038.59;;;10.84;100.00
18014;BME280;9132;47.946;10.394;2023-11-19T11:41:25;94032.72;;;10.82;100.00
18014;BME280;9132;47.946;10.394;2023-11-19T11:43:52;94025.81;;;10.81;100.00
18014;BME280;9132;47.946;10.394;2023-11-19T11:46:55;94013.84;;;10.85;100.00
18014;BME280;9132;47.946;10.394;2023-11-19T11:49:26;94015.06;;;10.89;100.00
18014;BME280;9132;47.946;10.394;2023-11-19T11:52:03;94021.38;;;10.95;100.00
18014;BME280;9132;47.946;10.394;2023-11-19T11:54:30;94025.84;;;11.01;100.00
18014;BME280;9132;47.946;10.394;2023-11-19T11:57:07;94022.19;;;11.02;100.00
18014;BME280;9132;47.946;10.394;2023-11-19T11:59:48;94028.50;;;11.01;100.00
18014;BME280;9132;47.946;10.394;2023-11-19T12:02:16;94026.91;;;11.07;100.00
18014;BME280;9132;47.946;10.394;2023-11-19T12:04:47;94037.66;;;11.12;100.00
18014;BME280;9132;47.946;10.394;2023-11-19T12:07:17;94022.03;;;11.17;100.00
18014;BME280;9132;47.946;10.394;2023-11-19T12:09:47;94037.66;;;11.19;100.00
18014;BME280;9132;47.946;10.394;2023-11-19T12:12:19;94022.44;;;11.21;100.00
18014;BME280;9132;47.946;10.394;2023-11-19T12:15:03;94024.28;;;11.27;100.00
18014;BME280;9132;47.946;10.394;2023-11-19T12:17:41;94024.69;;;11.30;100.00
18014;BME280;9132;47.946;10.394;2023-11-19T12:20:10;94018.19;;;11.33;100.00
18014;BME280;9132;47.946;10.394;2023-11-19T12:22:39;94015.97;;;11.36;100.00
18014;BME280;9132;47.946;10.394;2023-11-19T12:25:07;94018.59;;;11.36;100.00
18014;BME280;9132;47.946;10.394;2023-11-19T12:27:34;94002.13;;;11.41;100.00
18014;BME280;9132;47.946;10.394;2023-11-19T12:30:01;94021.88;;;11.45;100.00
18014;BME280;9132;47.946;10.394;2023-11-19T12:32:37;93999.31;;;11.49;100.00
18014;BME280;9132;47.946;10.394;2023-11-19T12:35:04;94001.53;;;11.46;100.00
18014;BME280;9132;47.946;10.394;2023-11-19T12:37:30;93983.25;;;11.44;100.00
18014;BME280;9132;47.946;10.394;2023-11-19T12:39:58;93970.25;;;11.43;100.00
18014;BME280;9132;47.946;10.394;2023-11-19T12:42:35;93970.66;;;11.46;100.00
18014;BME280;9132;47.946;10.394;2023-11-19T12:45:02;93981.03;;;11.48;100.00
18014;BME280;9132;47.946;10.394;2023-11-19T12:47:29;93987.94;;;11.49;100.00
18014;BME280;9132;47.946;10.394;2023-11-19T12:49:56;93972.88;;;11.49;100.00
18014;BME280;9132;47.946;10.394;2023-11-19T12:52:23;93987.31;;;11.53;100.00
18014;BME280;9132;47.946;10.394;2023-11-19T12:54:49;93972.69;;;11.51;100.00
18014;BME280;9132;47.946;10.394;2023-11-19T12:57:17;93985.06;;;11.50;100.00
18014;BME280;9132;47.946;10.394;2023-11-19T12:59:54;93989.13;;;11.53;100.00
18014;BME280;9132;47.946;10.394;2023-11-19T13:02:22;93991.78;;;11.46;100.00
18014;BME280;9132;47.946;10.394;2023-11-19T13:04:48;93990.34;;;11.50;100.00